Time;durP1;ratioP1;P1;durP2;ratioP2;P2;SDS_P1;SDS_P2;PMS_P1;PMS_P2;Temp;Humidity;BMP_temperature;BMP_pressure;BME280_temperature;BME280_humidity;BME280_pressure;Samples;Min_cycle;Max_cycle;Signal;HPM_P1;HPM_P2
2021/10/30 00:00:08;;;;;;;18.13;10.63;;;;;;;;;;5093934;28;20420;-65
2021/10/30 00:02:34;;;;;;;18.25;9.77;;;;;;;;;;5112272;28;20020;-65
2021/10/30 00:05:00;;;;;;;19.02;10.65;;;;;;;;;;5111865;28;20372;-65
2021/10/30 00:07:26;;;;;;;19.25;11.32;;;;;;;;;;5093862;28;20028;-65
2021/10/30 00:09:52;;;;;;;18.95;11.05;;;;;;;;;;5112091;28;20114;-66
2021/10/30 00:12:18;;;;;;;19.42;10.50;;;;;;;;;;5094031;28;20016;-66
2021/10/30 00:14:44;;;;;;;16.92;10.18;;;;;;;;;;5111859;28;20028;-66
2021/10/30 00:17:10;;;;;;;18.33;10.32;;;;;;;;;;5093739;28;20028;-65
2021/10/30 00:19:36;;;;;;;17.80;10.35;;;;;;;;;;5112117;28;20432;-66
2021/10/30 00:22:03;;;;;;;19.70;10.55;;;;;;;;;;5093796;28;20027;-63
2021/10/30 00:24:31;;;;;;;17.33;10.80;;;;;;;;;;5111589;28;20064;-64
2021/10/30 00:26:57;;;;;;;21.80;10.48;;;;;;;;;;5112106;28;20011;-64
2021/10/30 00:29:23;;;;;;;17.67;10.23;;;;;;;;;;5111999;28;20031;-65
2021/10/30 00:31:50;;;;;;;20.23;10.95;;;;;;;;;;5093690;28;20019;-65
2021/10/30 00:34:16;;;;;;;18.08;10.52;;;;;;;;;;5111644;28;20026;-65
2021/10/30 00:36:42;;;;;;;19.52;11.73;;;;;;;;;;5112112;28;20099;-69
2021/10/30 00:39:08;;;;;;;18.58;11.23;;;;;;;;;;5093449;28;20387;-64
2021/10/30 00:41:34;;;;;;;20.00;11.98;;;;;;;;;;5093640;28;20020;-63
2021/10/30 00:44:11;;;;;;;21.60;11.38;;;;;;;;;;5111619;28;20046;-64
2021/10/30 00:46:40;;;;;;;18.75;10.60;;;;;;;;;;5111950;28;20031;-65
2021/10/30 00:49:06;;;;;;;18.98;10.40;;;;;;;;;;5093409;28;20043;-64
2021/10/30 00:51:35;;;;;;;17.60;10.25;;;;;;;;;;5111852;28;20042;-63
2021/10/30 00:54:01;;;;;;;18.45;10.70;;;;;;;;;;5113500;28;20389;-67
2021/10/30 00:56:28;;;;;;;17.50;10.23;;;;;;;;;;5115560;28;20147;-65
2021/10/30 00:58:55;;;;;;;17.98;10.30;;;;;;;;;;5115763;28;20092;-64
2021/10/30 01:01:21;;;;;;;17.17;9.57;;;;;;;;;;5115968;28;20020;-64
2021/10/30 01:03:47;;;;;;;19.58;10.45;;;;;;;;;;5096947;28;20490;-63
2021/10/30 01:06:13;;;;;;;20.33;10.77;;;;;;;;;;5115536;28;20020;-62
2021/10/30 01:08:41;;;;;;;17.88;9.65;;;;;;;;;;5115038;28;20058;-63
2021/10/30 01:11:07;;;;;;;18.52;10.20;;;;;;;;;;5115000;28;20023;-64
2021/10/30 01:13:33;;;;;;;19.63;10.60;;;;;;;;;;5115184;28;20030;-64
2021/10/30 01:15:59;;;;;;;19.30;10.82;;;;;;;;;;5115040;28;20102;-65
2021/10/30 01:18:25;;;;;;;20.08;10.00;;;;;;;;;;5096648;28;20192;-65
2021/10/30 01:20:52;;;;;;;19.55;10.32;;;;;;;;;;5114983;28;20023;-65
2021/10/30 01:23:18;;;;;;;18.60;9.55;;;;;;;;;;5114727;28;20020;-64
2021/10/30 01:25:45;;;;;;;17.45;9.45;;;;;;;;;;5115001;28;20077;-64
2021/10/30 01:28:11;;;;;;;19.05;10.68;;;;;;;;;;5096690;28;20398;-64
2021/10/30 01:30:37;;;;;;;20.20;10.60;;;;;;;;;;5114931;28;20027;-66
2021/10/30 01:33:05;;;;;;;18.48;10.27;;;;;;;;;;5114817;28;20107;-65
2021/10/30 01:35:31;;;;;;;20.83;10.03;;;;;;;;;;5115117;28;20027;-66
2021/10/30 01:37:58;;;;;;;17.67;9.77;;;;;;;;;;5114743;28;20111;-65
2021/10/30 01:40:24;;;;;;;18.80;10.73;;;;;;;;;;5114856;28;20023;-65
2021/10/30 01:42:58;;;;;;;19.17;10.10;;;;;;;;;;5114834;28;20020;-65
2021/10/30 01:45:24;;;;;;;19.38;9.82;;;;;;;;;;5114461;28;20015;-64
2021/10/30 01:47:50;;;;;;;19.00;10.30;;;;;;;;;;5096447;28;20056;-65
2021/10/30 01:50:16;;;;;;;19.67;9.80;;;;;;;;;;5114484;28;20020;-65
2021/10/30 01:52:43;;;;;;;19.40;9.07;;;;;;;;;;5096187;28;20035;-65
2021/10/30 01:55:12;;;;;;;18.75;9.65;;;;;;;;;;5114314;28;20028;-63
2021/10/30 01:57:39;;;;;;;18.20;9.45;;;;;;;;;;5114396;28;20015;-64
2021/10/30 02:00:06;;;;;;;19.45;9.73;;;;;;;;;;5114381;28;20050;-64
2021/10/30 02:02:32;;;;;;;20.27;10.05;;;;;;;;;;5096070;28;20023;-63
2021/10/30 02:04:58;;;;;;;18.63;10.15;;;;;;;;;;5113712;28;20023;-63
2021/10/30 02:07:24;;;;;;;19.88;9.88;;;;;;;;;;5114114;28;20027;-63
2021/10/30 02:09:49;;;;;;;17.63;9.40;;;;;;;;;;5114350;28;20034;-63
2021/10/30 02:12:16;;;;;;;18.85;10.23;;;;;;;;;;5114269;28;20035;-65
2021/10/30 02:14:42;;;;;;;19.02;11.40;;;;;;;;;;5113624;28;20023;-64
2021/10/30 02:17:08;;;;;;;18.20;10.35;;;;;;;;;;5113831;28;20027;-64
2021/10/30 02:19:34;;;;;;;19.48;10.57;;;;;;;;;;5113849;28;20486;-64
2021/10/30 02:22:00;;;;;;;20.42;9.82;;;;;;;;;;5114301;28;20030;-64
2021/10/30 02:24:26;;;;;;;19.58;9.75;;;;;;;;;;5113552;28;20436;-64
2021/10/30 02:26:52;;;;;;;19.63;9.88;;;;;;;;;;5095643;28;20054;-64
2021/10/30 02:29:18;;;;;;;20.70;9.98;;;;;;;;;;5095467;28;20122;-64
2021/10/30 02:31:44;;;;;;;17.92;10.23;;;;;;;;;;5113620;28;20024;-64
2021/10/30 02:34:10;;;;;;;19.25;10.43;;;;;;;;;;5113541;28;20050;-64
2021/10/30 02:36:36;;;;;;;19.30;10.25;;;;;;;;;;5113676;28;20027;-65
2021/10/30 02:39:02;;;;;;;19.38;11.25;;;;;;;;;;5113570;28;20031;-63
2021/10/30 02:41:29;;;;;;;18.48;11.20;;;;;;;;;;5113535;28;20028;-64
2021/10/30 02:43:55;;;;;;;20.77;10.15;;;;;;;;;;5113297;28;20094;-65
2021/10/30 02:46:21;;;;;;;21.58;11.80;;;;;;;;;;5095244;28;20031;-65
2021/10/30 02:48:47;;;;;;;20.77;11.23;;;;;;;;;;5113422;28;20027;-64
2021/10/30 02:51:13;;;;;;;20.35;11.85;;;;;;;;;;5113651;28;20429;-63
2021/10/30 02:53:39;;;;;;;19.65;9.93;;;;;;;;;;5113032;28;20471;-65
2021/10/30 02:56:05;;;;;;;19.33;10.50;;;;;;;;;;5113185;28;20028;-64
2021/10/30 02:58:31;;;;;;;19.17;10.43;;;;;;;;;;5113129;28;20416;-64
2021/10/30 03:00:57;;;;;;;18.63;10.30;;;;;;;;;;5113173;28;20053;-65
2021/10/30 03:03:23;;;;;;;20.45;10.27;;;;;;;;;;5112962;28;20475;-65
2021/10/30 03:05:49;;;;;;;19.92;9.90;;;;;;;;;;5113144;28;20020;-64
2021/10/30 03:08:15;;;;;;;18.05;10.55;;;;;;;;;;5113142;28;20020;-65
2021/10/30 03:10:41;;;;;;;18.42;9.85;;;;;;;;;;5112856;28;20497;-64
2021/10/30 03:13:08;;;;;;;17.88;9.88;;;;;;;;;;5112874;28;20024;-64
2021/10/30 03:15:34;;;;;;;18.63;10.18;;;;;;;;;;5112609;28;20080;-64
2021/10/30 03:17:59;;;;;;;18.13;9.70;;;;;;;;;;5112620;28;20023;-64
2021/10/30 03:20:25;;;;;;;18.98;11.27;;;;;;;;;;5112959;28;20030;-64
2021/10/30 03:22:51;;;;;;;19.98;10.23;;;;;;;;;;5112896;28;20027;-64
2021/10/30 03:25:17;;;;;;;18.85;10.80;;;;;;;;;;5112278;28;20020;-65
2021/10/30 03:27:43;;;;;;;21.00;10.52;;;;;;;;;;5112677;28;20089;-65
2021/10/30 03:30:10;;;;;;;17.35;9.90;;;;;;;;;;5112568;28;20130;-64
2021/10/30 03:32:36;;;;;;;17.95;10.30;;;;;;;;;;5094227;28;20027;-65
2021/10/30 03:35:02;;;;;;;18.85;10.77;;;;;;;;;;5093929;28;20487;-62
2021/10/30 03:37:32;;;;;;;18.50;10.35;;;;;;;;;;5112593;28;20184;-65
2021/10/30 03:39:58;;;;;;;17.35;9.50;;;;;;;;;;5112286;28;20027;-64
2021/10/30 03:42:24;;;;;;;18.92;10.45;;;;;;;;;;5093975;28;20027;-65
2021/10/30 03:44:50;;;;;;;18.65;9.88;;;;;;;;;;5112126;28;20115;-65
2021/10/30 03:47:17;;;;;;;17.48;10.20;;;;;;;;;;5112619;28;20020;-65
2021/10/30 03:49:43;;;;;;;16.52;9.10;;;;;;;;;;5112559;28;20031;-65
2021/10/30 03:52:09;;;;;;;16.95;9.57;;;;;;;;;;5094013;28;20387;-64
2021/10/30 03:54:35;;;;;;;19.73;10.27;;;;;;;;;;5093773;28;20030;-65
2021/10/30 03:57:01;;;;;;;20.00;10.60;;;;;;;;;;5112343;28;20383;-65
2021/10/30 03:59:27;;;;;;;18.95;9.98;;;;;;;;;;5112168;28;20035;-64
2021/10/30 04:01:53;;;;;;;18.75;10.23;;;;;;;;;;5094059;28;20031;-64
2021/10/30 04:04:19;;;;;;;21.00;10.93;;;;;;;;;;5093797;28;20118;-63
2021/10/30 04:06:45;;;;;;;17.48;10.27;;;;;;;;;;5112423;28;20066;-62
2021/10/30 04:09:11;;;;;;;19.50;10.52;;;;;;;;;;5094147;28;20027;-64
2021/10/30 04:11:38;;;;;;;21.40;10.20;;;;;;;;;;5112279;28;20467;-65
2021/10/30 04:14:04;;;;;;;18.98;10.32;;;;;;;;;;5111612;28;20372;-64
2021/10/30 04:16:30;;;;;;;16.65;10.05;;;;;;;;;;5117603;22;20131;-62
2021/10/30 04:18:59;;;;;;;17.23;10.20;;;;;;;;;;5073347;28;20459;-63
2021/10/30 04:21:25;;;;;;;21.88;9.95;;;;;;;;;;5091569;28;20036;-63
2021/10/30 04:23:51;;;;;;;20.92;10.48;;;;;;;;;;5091221;28;20062;-63
2021/10/30 04:26:17;;;;;;;22.60;10.80;;;;;;;;;;5073174;28;20055;-63
2021/10/30 04:28:43;;;;;;;19.00;10.10;;;;;;;;;;5075687;28;20476;-63
2021/10/30 04:31:10;;;;;;;20.70;10.55;;;;;;;;;;5095985;28;20061;-63
2021/10/30 04:33:42;;;;;;;21.05;10.52;;;;;;;;;;5077200;28;20020;-63
2021/10/30 04:36:15;;;;;;;18.02;10.48;;;;;;;;;;5077196;28;20031;-63
2021/10/30 04:38:41;;;;;;;18.48;10.02;;;;;;;;;;5077222;28;20067;-64
2021/10/30 04:41:07;;;;;;;18.63;10.25;;;;;;;;;;5095236;28;20432;-64
2021/10/30 04:43:33;;;;;;;18.30;10.38;;;;;;;;;;5095234;28;20169;-63
2021/10/30 04:45:59;;;;;;;18.30;10.32;;;;;;;;;;5078178;28;20051;-64
2021/10/30 04:48:25;;;;;;;18.67;10.25;;;;;;;;;;5077734;28;20028;-63
2021/10/30 04:50:51;;;;;;;18.88;9.75;;;;;;;;;;5077742;28;20028;-63
2021/10/30 04:53:17;;;;;;;19.05;10.50;;;;;;;;;;5095010;28;20107;-63
2021/10/30 04:55:43;;;;;;;20.15;10.32;;;;;;;;;;5095239;28;20468;-64
2021/10/30 04:58:09;;;;;;;18.25;10.38;;;;;;;;;;5095043;28;20042;-64
2021/10/30 05:00:35;;;;;;;20.55;10.45;;;;;;;;;;5077009;28;20459;-63
2021/10/30 05:03:01;;;;;;;19.08;10.35;;;;;;;;;;5094944;28;20024;-63
2021/10/30 05:05:27;;;;;;;18.70;10.45;;;;;;;;;;5062154;28;20074;-65
2021/10/30 05:07:53;;;;;;;19.73;11.13;;;;;;;;;;5073835;28;20056;-62
2021/10/30 05:10:20;;;;;;;19.67;10.32;;;;;;;;;;5093928;28;20060;-64
2021/10/30 05:12:46;;;;;;;19.13;11.38;;;;;;;;;;5072276;28;20070;-63
2021/10/30 05:15:12;;;;;;;19.92;10.93;;;;;;;;;;5056239;28;20032;-64
2021/10/30 05:17:38;;;;;;;18.23;10.65;;;;;;;;;;5084508;28;20047;-63
2021/10/30 05:20:04;;;;;;;17.48;10.30;;;;;;;;;;5076388;28;20051;-63
2021/10/30 05:22:30;;;;;;;19.10;10.63;;;;;;;;;;5094536;28;20021;-63
2021/10/30 05:24:56;;;;;;;17.73;10.73;;;;;;;;;;5093891;28;20028;-63
2021/10/30 05:27:22;;;;;;;18.90;11.00;;;;;;;;;;5074022;28;20602;-63
2021/10/30 05:29:48;;;;;;;18.35;10.45;;;;;;;;;;5056113;28;20247;-64
2021/10/30 05:32:14;;;;;;;19.02;11.02;;;;;;;;;;5056187;28;20048;-63
2021/10/30 05:34:40;;;;;;;18.17;10.82;;;;;;;;;;5073824;28;20051;-63
2021/10/30 05:37:06;;;;;;;17.98;10.35;;;;;;;;;;5056394;28;20020;-63
2021/10/30 05:39:35;;;;;;;20.65;11.07;;;;;;;;;;5055433;28;20031;-62
2021/10/30 05:42:01;;;;;;;18.17;10.82;;;;;;;;;;5056251;28;20464;-63
2021/10/30 05:44:27;;;;;;;18.60;10.13;;;;;;;;;;5076370;28;20508;-63
2021/10/30 05:46:53;;;;;;;19.25;10.82;;;;;;;;;;5094797;28;20024;-62
2021/10/30 05:49:19;;;;;;;19.17;10.15;;;;;;;;;;5076445;28;20126;-62
2021/10/30 05:51:45;;;;;;;17.83;10.25;;;;;;;;;;5076378;28;20024;-62
2021/10/30 05:54:12;;;;;;;18.85;9.98;;;;;;;;;;5075813;28;20028;-62
2021/10/30 05:56:38;;;;;;;19.25;10.60;;;;;;;;;;5075812;28;20500;-63
2021/10/30 05:59:04;;;;;;;17.77;10.05;;;;;;;;;;5093883;28;20422;-63
2021/10/30 06:01:30;;;;;;;19.63;10.80;;;;;;;;;;5075759;28;20031;-63
2021/10/30 06:03:56;;;;;;;18.65;10.55;;;;;;;;;;5093515;28;20383;-63
2021/10/30 06:06:22;;;;;;;17.15;10.05;;;;;;;;;;5094104;28;20103;-63
2021/10/30 06:08:48;;;;;;;18.40;10.68;;;;;;;;;;5093731;28;20103;-63
2021/10/30 06:11:14;;;;;;;19.23;10.68;;;;;;;;;;5093737;28;20024;-63
2021/10/30 06:13:39;;;;;;;18.00;10.82;;;;;;;;;;5075172;28;20123;-63
2021/10/30 06:16:05;;;;;;;17.73;10.90;;;;;;;;;;5075343;28;20046;-63
2021/10/30 06:18:32;;;;;;;20.58;11.90;;;;;;;;;;5075546;28;20024;-63
2021/10/30 06:20:58;;;;;;;218.65;165.05;;;;;;;;;;5075775;28;20020;-66
2021/10/30 06:23:24;;;;;;;127.68;106.00;;;;;;;;;;5075050;28;20051;-67
2021/10/30 06:25:50;;;;;;;21.70;14.00;;;;;;;;;;5075600;28;20039;-67
2021/10/30 06:28:16;;;;;;;20.10;11.63;;;;;;;;;;5093495;28;20020;-66
2021/10/30 06:30:43;;;;;;;19.27;11.25;;;;;;;;;;5075751;28;20028;-68
2021/10/30 06:33:09;;;;;;;19.85;11.65;;;;;;;;;;5093867;28;20487;-67
2021/10/30 06:35:35;;;;;;;20.63;12.00;;;;;;;;;;5075577;28;20119;-67
2021/10/30 06:38:01;;;;;;;21.67;11.43;;;;;;;;;;5093960;28;20374;-67
2021/10/30 06:40:27;;;;;;;20.08;11.90;;;;;;;;;;5075778;28;20023;-68
2021/10/30 06:42:53;;;;;;;19.45;11.98;;;;;;;;;;5093659;28;20016;-67
2021/10/30 06:45:19;;;;;;;23.83;11.63;;;;;;;;;;5093510;28;20020;-68
2021/10/30 06:47:45;;;;;;;18.98;11.43;;;;;;;;;;5093631;28;20043;-66
2021/10/30 06:50:20;;;;;;;19.05;11.00;;;;;;;;;;5074905;28;20024;-66
2021/10/30 06:52:48;;;;;;;19.27;11.68;;;;;;;;;;5092773;28;20530;-66
2021/10/30 06:55:14;;;;;;;19.80;11.88;;;;;;;;;;5075089;28;20028;-66
2021/10/30 06:57:40;;;;;;;22.42;11.25;;;;;;;;;;5074932;28;20132;-66
2021/10/30 07:00:07;;;;;;;23.65;11.85;;;;;;;;;;5075193;28;20044;-67
2021/10/30 07:02:33;;;;;;;19.98;10.35;;;;;;;;;;5075960;28;20556;-66
2021/10/30 07:05:00;;;;;;;21.80;11.93;;;;;;;;;;5074236;28;20487;-66
2021/10/30 07:07:26;;;;;;;19.98;11.13;;;;;;;;;;5092702;28;20095;-65
2021/10/30 07:09:59;;;;;;;19.65;11.65;;;;;;;;;;5074190;28;20025;-66
2021/10/30 07:12:29;;;;;;;21.40;10.85;;;;;;;;;;5092609;28;20020;-64
2021/10/30 07:14:55;;;;;;;19.63;11.05;;;;;;;;;;5092119;28;20032;-64
2021/10/30 07:17:21;;;;;;;21.10;11.23;;;;;;;;;;5092484;28;20464;-64
2021/10/30 07:19:48;;;;;;;23.75;11.10;;;;;;;;;;5092707;28;20702;-64
2021/10/30 07:22:14;;;;;;;22.63;11.73;;;;;;;;;;5074673;28;20023;-64
2021/10/30 07:24:40;;;;;;;21.50;11.60;;;;;;;;;;5074383;28;20418;-64
2021/10/30 07:27:06;;;;;;;20.90;11.43;;;;;;;;;;5074120;28;20023;-64
2021/10/30 07:29:33;;;;;;;19.58;11.30;;;;;;;;;;5074014;28;20024;-64
2021/10/30 07:31:58;;;;;;;23.35;12.13;;;;;;;;;;5073696;28;20063;-64
2021/10/30 07:34:24;;;;;;;21.60;12.55;;;;;;;;;;5073871;28;20032;-64
2021/10/30 07:36:50;;;;;;;20.70;12.07;;;;;;;;;;5091806;28;20031;-64
2021/10/30 07:39:17;;;;;;;21.17;10.95;;;;;;;;;;5092050;28;20627;-66
2021/10/30 07:41:43;;;;;;;22.65;12.10;;;;;;;;;;5074057;28;20378;-65
2021/10/30 07:44:10;;;;;;;24.35;11.77;;;;;;;;;;5073732;28;20040;-66
2021/10/30 07:46:36;;;;;;;22.30;12.00;;;;;;;;;;5091769;28;20464;-65
2021/10/30 07:49:03;;;;;;;25.75;12.77;;;;;;;;;;5073820;28;20152;-66
2021/10/30 07:51:29;;;;;;;25.25;11.55;;;;;;;;;;5091836;28;20403;-66
2021/10/30 07:53:55;;;;;;;23.92;11.80;;;;;;;;;;5092961;28;20467;-71
2021/10/30 07:56:21;;;;;;;21.80;12.02;;;;;;;;;;5092602;28;20046;-69
2021/10/30 07:58:47;;;;;;;23.88;12.15;;;;;;;;;;5074825;28;20028;-70
2021/10/30 08:01:14;;;;;;;22.98;12.60;;;;;;;;;;5092816;28;20471;-70
2021/10/30 08:03:40;;;;;;;24.45;12.13;;;;;;;;;;5093067;28;20490;-71
2021/10/30 08:06:07;;;;;;;22.85;13.40;;;;;;;;;;5093151;28;20020;-70
2021/10/30 08:08:33;;;;;;;21.42;12.35;;;;;;;;;;5075119;28;20069;-71
2021/10/30 08:10:59;;;;;;;21.30;12.02;;;;;;;;;;5075203;28;20495;-71
2021/10/30 08:13:25;;;;;;;21.65;12.23;;;;;;;;;;5074451;28;20641;-72
2021/10/30 08:15:51;;;;;;;21.58;12.82;;;;;;;;;;5092279;28;20123;-71
2021/10/30 08:18:17;;;;;;;22.88;12.25;;;;;;;;;;5092901;28;20028;-70
2021/10/30 08:20:43;;;;;;;22.10;12.02;;;;;;;;;;5074846;28;20521;-69
2021/10/30 08:23:09;;;;;;;23.13;12.23;;;;;;;;;;5092650;28;20028;-69
2021/10/30 08:25:35;;;;;;;21.90;12.85;;;;;;;;;;5074864;28;20052;-70
2021/10/30 08:28:01;;;;;;;22.85;12.25;;;;;;;;;;5074621;28;20024;-70
2021/10/30 08:30:27;;;;;;;21.20;11.82;;;;;;;;;;5074086;28;20404;-70
2021/10/30 08:32:54;;;;;;;20.73;11.25;;;;;;;;;;5074527;28;20024;-70
2021/10/30 08:35:20;;;;;;;20.55;11.48;;;;;;;;;;5073891;28;20020;-67
2021/10/30 08:37:46;;;;;;;21.90;12.07;;;;;;;;;;5092584;28;20024;-69
2021/10/30 08:40:14;;;;;;;21.50;11.70;;;;;;;;;;5074126;28;20016;-70
2021/10/30 08:42:48;;;;;;;23.17;11.57;;;;;;;;;;5092025;28;20027;-71
2021/10/30 08:45:14;;;;;;;21.63;11.88;;;;;;;;;;5091892;28;20056;-71
2021/10/30 08:47:41;;;;;;;21.25;11.25;;;;;;;;;;5092122;28;20035;-70
2021/10/30 08:50:08;;;;;;;20.80;11.55;;;;;;;;;;5074342;28;20016;-72
2021/10/30 08:52:34;;;;;;;21.05;10.73;;;;;;;;;;5073944;28;20027;-72
2021/10/30 08:55:02;;;;;;;18.83;10.35;;;;;;;;;;5073817;28;20032;-71
2021/10/30 08:57:28;;;;;;;20.67;10.52;;;;;;;;;;5064722;28;20123;-71
2021/10/30 08:59:54;;;;;;;21.98;10.57;;;;;;;;;;5063068;28;20115;-71
2021/10/30 09:02:27;;;;;;;19.52;10.98;;;;;;;;;;5083521;28;20028;-65
2021/10/30 09:05:09;;;;;;;22.58;10.27;;;;;;;;;;5090264;28;20032;-65
2021/10/30 09:07:35;;;;;;;19.17;10.55;;;;;;;;;;5057258;28;20512;-66
2021/10/30 09:10:01;;;;;;;20.95;10.95;;;;;;;;;;5066018;28;20074;-67
2021/10/30 09:12:27;;;;;;;20.95;11.85;;;;;;;;;;5071944;28;20471;-66
2021/10/30 09:14:53;;;;;;;21.55;11.20;;;;;;;;;;5091387;28;20053;-66
2021/10/30 09:17:22;;;;;;;21.10;11.32;;;;;;;;;;5094502;28;20020;-66
2021/10/30 09:19:50;;;;;;;19.15;10.32;;;;;;;;;;5076676;28;20126;-66
2021/10/30 09:22:17;;;;;;;21.73;12.60;;;;;;;;;;5076564;28;20337;-67
2021/10/30 09:24:52;;;;;;;21.70;12.27;;;;;;;;;;5093746;28;20020;-65
2021/10/30 09:27:21;;;;;;;20.05;11.77;;;;;;;;;;5095282;28;20020;-67
2021/10/30 09:29:56;;;;;;;22.42;12.60;;;;;;;;;;5095417;28;20411;-66
2021/10/30 09:32:28;;;;;;;21.73;12.40;;;;;;;;;;5095923;28;20020;-67
2021/10/30 09:34:54;;;;;;;21.13;11.30;;;;;;;;;;5078217;28;20077;-66
2021/10/30 09:37:23;;;;;;;22.90;11.90;;;;;;;;;;5095799;28;20024;-68
2021/10/30 09:39:49;;;;;;;;;;;;;;;;;;5095994;28;20028;-67
2021/10/30 09:42:25;;;;;;;19.10;10.63;;;;;;;;;;5076878;28;19996;-65
2021/10/30 09:45:06;;;;;;;20.25;10.25;;;;;;;;;;5094805;28;20472;-67
2021/10/30 09:47:32;;;;;;;21.27;10.77;;;;;;;;;;5076070;28;20020;-67
2021/10/30 09:49:58;;;;;;;24.05;10.63;;;;;;;;;;5097777;28;20066;-66
2021/10/30 09:52:27;;;;;;;28.33;11.00;;;;;;;;;;5095431;28;20024;-67
2021/10/30 09:54:53;;;;;;;22.02;10.55;;;;;;;;;;5095202;28;20079;-66
2021/10/30 09:57:30;;;;;;;20.30;10.65;;;;;;;;;;5077768;28;20024;-65
2021/10/30 09:59:58;;;;;;;22.33;11.13;;;;;;;;;;5077548;28;20032;-67
2021/10/30 10:02:25;;;;;;;21.05;11.50;;;;;;;;;;5096548;28;20020;-67
2021/10/30 10:04:54;;;;;;;21.15;11.48;;;;;;;;;;5077685;28;20028;-66
2021/10/30 10:07:26;;;;;;;19.67;11.18;;;;;;;;;;5077806;28;20127;-66
2021/10/30 10:09:52;;;;;;;24.42;11.52;;;;;;;;;;5077337;28;20024;-66
2021/10/30 10:12:18;;;;;;;20.92;10.82;;;;;;;;;;5075858;28;20463;-67
2021/10/30 10:17:32;;;;;;;20.92;11.25;;;;;;;;;;5071955;28;20075;-65
2021/10/30 10:19:58;;;;;;;20.77;11.07;;;;;;;;;;5073360;28;20503;-66
2021/10/30 10:22:26;;;;;;;21.63;10.48;;;;;;;;;;5071483;28;20025;-64
2021/10/30 10:24:52;;;;;;;20.80;11.02;;;;;;;;;;5071563;28;20023;-66
2021/10/30 10:27:18;;;;;;;20.58;11.00;;;;;;;;;;5070566;28;20017;-66
2021/10/30 10:29:45;;;;;;;18.80;10.48;;;;;;;;;;5071543;28;20472;-67
2021/10/30 10:32:25;;;;;;;19.60;10.27;;;;;;;;;;5073120;28;20028;-67
2021/10/30 10:34:52;;;;;;;19.77;10.23;;;;;;;;;;5071151;28;20035;-66
2021/10/30 10:37:21;;;;;;;19.38;9.60;;;;;;;;;;5072755;28;20031;-66
2021/10/30 10:39:57;;;;;;;17.60;9.70;;;;;;;;;;5071387;28;20154;-65
2021/10/30 10:42:43;;;;;;;18.58;9.90;;;;;;;;;;5072625;28;20021;-67
2021/10/30 10:45:09;;;;;;;19.55;9.80;;;;;;;;;;5071010;28;20517;-66
2021/10/30 10:47:35;;;;;;;17.25;9.55;;;;;;;;;;5072675;28;20045;-65
2021/10/30 10:50:09;;;;;;;17.35;9.10;;;;;;;;;;5072592;28;20457;-67
2021/10/30 10:52:35;;;;;;;18.65;9.88;;;;;;;;;;5072341;28;20384;-66
2021/10/30 10:55:04;;;;;;;18.20;9.85;;;;;;;;;;5070421;28;20020;-64
2021/10/30 10:57:34;;;;;;;18.33;10.63;;;;;;;;;;5071789;28;20027;-64
2021/10/30 11:00:00;;;;;;;18.13;9.57;;;;;;;;;;5071106;28;20484;-66
2021/10/30 11:02:30;;;;;;;18.48;9.93;;;;;;;;;;5064206;28;20451;-66
2021/10/30 11:05:08;;;;;;;17.67;9.57;;;;;;;;;;5060759;28;20017;-67
2021/10/30 11:07:41;;;;;;;17.58;9.50;;;;;;;;;;5062653;28;20024;-66
2021/10/30 11:10:08;;;;;;;17.70;10.55;;;;;;;;;;5061537;28;20029;-66
2021/10/30 11:12:35;;;;;;;20.67;10.90;;;;;;;;;;5058564;28;20054;-68
2021/10/30 11:15:08;;;;;;;18.00;10.02;;;;;;;;;;5058601;28;20019;-65
2021/10/30 11:17:47;;;;;;;17.73;10.20;;;;;;;;;;5070325;28;20158;-67
2021/10/30 11:20:16;;;;;;;18.40;10.02;;;;;;;;;;5071225;28;20329;-65
2021/10/30 11:22:58;;;;;;;18.98;10.80;;;;;;;;;;5071784;28;20356;-66
2021/10/30 11:25:24;;;;;;;19.42;9.60;;;;;;;;;;4717679;28;10000528;-67
2021/10/30 11:27:50;;;;;;;19.98;10.63;;;;;;;;;;5058221;28;20032;-67
2021/10/30 11:30:16;;;;;;;17.83;10.23;;;;;;;;;;5064123;28;20519;-66
2021/10/30 11:32:42;;;;;;;19.20;10.57;;;;;;;;;;5056935;28;20078;-67
2021/10/30 11:35:12;;;;;;;16.88;9.32;;;;;;;;;;5055479;28;20029;-68
2021/10/30 11:37:39;;;;;;;17.80;9.48;;;;;;;;;;5056849;28;20567;-66
2021/10/30 11:40:05;;;;;;;18.33;9.73;;;;;;;;;;5056921;28;20032;-65
2021/10/30 11:42:31;;;;;;;18.50;10.23;;;;;;;;;;5055852;28;20025;-66
2021/10/30 11:44:59;;;;;;;23.08;10.13;;;;;;;;;;5057301;28;20017;-66
2021/10/30 11:47:26;;;;;;;20.38;10.85;;;;;;;;;;5057121;28;20188;-67
2021/10/30 11:49:52;;;;;;;21.10;11.32;;;;;;;;;;5058005;28;20086;-68
2021/10/30 11:52:18;;;;;;;19.30;10.43;;;;;;;;;;5056297;28;20104;-68
2021/10/30 11:54:44;;;;;;;21.42;10.52;;;;;;;;;;5057289;28;20024;-66
2021/10/30 11:57:11;;;;;;;21.02;10.75;;;;;;;;;;5057182;28;20039;-66
2021/10/30 11:59:42;;;;;;;21.83;10.13;;;;;;;;;;5055989;28;20139;-66
2021/10/30 12:02:13;;;;;;;18.13;9.95;;;;;;;;;;5057072;28;20032;-66
2021/10/30 12:04:39;;;;;;;18.20;9.95;;;;;;;;;;5056102;28;20517;-66
2021/10/30 12:07:06;;;;;;;19.42;11.20;;;;;;;;;;5057005;28;20063;-67
2021/10/30 12:09:36;;;;;;;19.58;10.52;;;;;;;;;;5059381;28;20020;-66
2021/10/30 12:12:06;;;;;;;20.10;11.18;;;;;;;;;;5059685;28;20029;-67
2021/10/30 12:14:34;;;;;;;19.92;11.27;;;;;;;;;;5057055;28;20035;-67
2021/10/30 12:17:04;;;;;;;19.50;10.67;;;;;;;;;;5054921;28;20093;-67
2021/10/30 12:19:34;;;;;;;20.50;11.52;;;;;;;;;;5055422;28;20033;-67
2021/10/30 12:22:03;;;;;;;20.30;11.80;;;;;;;;;;5065395;28;20025;-67
2021/10/30 12:24:29;;;;;;;18.55;11.18;;;;;;;;;;5067593;28;20025;-67
2021/10/30 12:26:56;;;;;;;18.45;10.50;;;;;;;;;;5068272;28;20036;-67
2021/10/30 12:29:27;;;;;;;21.30;11.40;;;;;;;;;;5068131;28;20074;-69
2021/10/30 12:32:03;;;;;;;19.48;10.80;;;;;;;;;;5067000;28;20029;-65
2021/10/30 12:34:31;;;;;;;20.02;11.40;;;;;;;;;;5067257;28;20391;-69
2021/10/30 12:36:58;;;;;;;19.17;11.00;;;;;;;;;;5066285;28;20036;-65
2021/10/30 12:39:24;;;;;;;18.65;10.65;;;;;;;;;;5067219;28;20108;-68
2021/10/30 12:42:07;;;;;;;19.23;10.68;;;;;;;;;;5066280;28;20016;-67
2021/10/30 12:44:36;;;;;;;21.05;11.48;;;;;;;;;;5066246;28;20039;-66
2021/10/30 12:47:01;;;;;;;;;;;;;;;;;;5068155;28;20025;-64
2021/10/30 12:49:29;;;;;;;21.13;10.93;;;;;;;;;;5068199;28;20053;-64
2021/10/30 12:51:59;;;;;;;19.03;10.70;;;;;;;;;;5071337;28;20029;-67
2021/10/30 12:54:26;;;;;;;21.65;10.75;;;;;;;;;;5061959;28;20025;-65
2021/10/30 12:56:53;;;;;;;20.00;9.90;;;;;;;;;;5069842;28;20035;-66
2021/10/30 12:59:23;;;;;;;18.38;9.95;;;;;;;;;;5071641;28;20383;-67
2021/10/30 13:01:55;;;;;;;18.77;10.43;;;;;;;;;;5071574;28;20103;-70
2021/10/30 13:04:29;;;;;;;19.80;10.55;;;;;;;;;;5069648;28;20123;-64
2021/10/30 13:07:03;;;;;;;21.10;10.48;;;;;;;;;;5069420;28;20024;-66
2021/10/30 13:09:29;;;;;;;19.20;10.60;;;;;;;;;;5071805;28;20058;-68
2021/10/30 13:11:56;;;;;;;19.83;10.50;;;;;;;;;;5070592;28;20032;-67
2021/10/30 13:14:22;;;;;;;20.20;11.30;;;;;;;;;;5071630;28;20029;-67
2021/10/30 13:16:48;;;;;;;18.05;9.95;;;;;;;;;;5069791;28;20043;-67
2021/10/30 13:19:14;;;;;;;19.92;10.23;;;;;;;;;;5069937;28;20115;-66
2021/10/30 13:21:41;;;;;;;19.33;10.27;;;;;;;;;;5069693;28;20186;-67
2021/10/30 13:24:09;;;;;;;19.08;10.20;;;;;;;;;;5070938;28;20024;-67
2021/10/30 13:26:35;;;;;;;20.30;10.40;;;;;;;;;;5069972;28;20452;-66
2021/10/30 13:29:01;;;;;;;23.48;12.38;;;;;;;;;;5070903;28;20031;-67
2021/10/30 13:31:27;;;;;;;18.40;10.02;;;;;;;;;;5069561;28;20024;-68
2021/10/30 13:33:53;;;;;;;18.45;10.02;;;;;;;;;;5070593;28;20047;-68
2021/10/30 13:36:24;;;;;;;19.80;10.60;;;;;;;;;;5071010;28;20029;-68
2021/10/30 13:38:51;;;;;;;19.42;10.23;;;;;;;;;;5070708;28;20036;-69
2021/10/30 13:41:17;;;;;;;21.67;11.07;;;;;;;;;;5069055;28;20024;-66
2021/10/30 13:43:43;;;;;;;20.75;11.75;;;;;;;;;;5070288;28;20069;-68
2021/10/30 13:46:09;;;;;;;21.35;10.80;;;;;;;;;;5071104;28;20029;-70
2021/10/30 13:48:35;;;;;;;32.92;24.92;;;;;;;;;;5070732;28;20077;-67
2021/10/30 13:51:03;;;;;;;97.93;87.28;;;;;;;;;;5061887;28;20077;-68
2021/10/30 13:53:29;;;;;;;20.80;13.35;;;;;;;;;;5068768;28;20039;-70
2021/10/30 13:55:55;;;;;;;22.15;12.25;;;;;;;;;;5069032;28;20431;-70
2021/10/30 13:58:21;;;;;;;20.73;11.23;;;;;;;;;;5070124;28;20040;-71
2021/10/30 14:00:47;;;;;;;20.42;11.45;;;;;;;;;;5068381;28;20123;-70
2021/10/30 14:03:13;;;;;;;20.73;11.63;;;;;;;;;;5069410;28;20381;-69
2021/10/30 14:05:39;;;;;;;22.27;11.68;;;;;;;;;;5070686;28;20024;-70
2021/10/30 14:08:05;;;;;;;22.27;11.23;;;;;;;;;;5070913;28;20117;-70
2021/10/30 14:10:31;;;;;;;19.90;10.55;;;;;;;;;;5070614;28;20129;-69
2021/10/30 14:12:57;;;;;;;18.48;9.75;;;;;;;;;;5070379;28;20044;-69
2021/10/30 14:15:23;;;;;;;20.88;9.55;;;;;;;;;;5067663;28;20064;-69
2021/10/30 14:17:49;;;;;;;21.23;10.10;;;;;;;;;;5070199;28;20506;-69
2021/10/30 14:20:15;;;;;;;19.40;9.23;;;;;;;;;;5070652;28;20229;-69